createdAt,value
2019-04-14T00:00:53.081Z,99288.91
2019-04-14T00:03:41.362Z,99277.27
2019-04-14T00:06:11.262Z,99274.66
2019-04-14T00:08:41.477Z,99280.45
2019-04-14T00:11:10.536Z,99278.37
2019-04-14T00:13:39.333Z,99277.77
2019-04-14T00:16:09.500Z,99270.69
2019-04-14T00:18:39.015Z,99268.95
2019-04-14T00:21:08.724Z,99274.88
2019-04-14T00:23:37.557Z,99273.97
2019-04-14T00:26:31.551Z,99270.87
2019-04-14T00:29:00.390Z,99272.13
2019-04-14T00:31:30.582Z,99269.13
2019-04-14T00:34:02.950Z,99276.86
2019-04-14T00:36:37.853Z,99273.67
2019-04-14T00:39:18.305Z,99264.31
2019-04-14T00:42:06.815Z,99269.33
2019-04-14T00:44:49.595Z,99269.64
2019-04-14T00:47:22.200Z,99258.80
2019-04-14T00:49:51.256Z,99260.14
2019-04-14T00:52:21.206Z,99260.92
2019-04-14T00:54:50.474Z,99259.09
2019-04-14T00:57:20.154Z,99259.48
2019-04-14T00:59:49.449Z,99266.72
2019-04-14T01:02:18.907Z,99260.45
2019-04-14T01:04:49.138Z,99269.94
2019-04-14T01:07:17.850Z,99267.19
2019-04-14T01:09:47.111Z,99257.16
2019-04-14T01:12:17.099Z,99270.57
2019-04-14T01:14:47.409Z,99266.90
2019-04-14T01:17:17.721Z,99263.05
2019-04-14T01:19:46.483Z,99264.00
2019-04-14T01:22:16.277Z,99268.63
2019-04-14T01:24:45.372Z,99265.45
2019-04-14T01:27:14.560Z,99271.45
2019-04-14T01:29:44.824Z,99276.95
2019-04-14T01:32:13.846Z,99276.55
2019-04-14T01:34:43.399Z,99278.08
2019-04-14T01:37:12.182Z,99282.73
2019-04-14T01:39:41.470Z,99285.91
2019-04-14T01:42:11.576Z,99287.58
2019-04-14T01:44:41.617Z,99287.42
2019-04-14T01:47:11.966Z,99295.36
2019-04-14T01:49:41.881Z,99289.45
2019-04-14T01:52:29.633Z,99297.44
2019-04-14T01:57:58.896Z,99302.62
2019-04-14T02:00:46.694Z,99291.94
2019-04-14T02:03:17.126Z,99305.33
2019-04-14T02:05:45.789Z,99307.50
2019-04-14T02:08:15.517Z,99306.31
2019-04-14T02:10:45.610Z,99306.51
2019-04-14T02:13:15.703Z,99303.95
2019-04-14T02:15:44.522Z,99301.61
2019-04-14T02:18:14.276Z,99306.70
2019-04-14T02:20:44.601Z,99301.14
2019-04-14T02:23:14.720Z,99299.37
2019-04-14T02:25:43.429Z,99294.78
2019-04-14T02:28:13.422Z,99298.14
2019-04-14T02:30:54.038Z,99294.55
2019-04-14T02:33:40.830Z,99292.99
2019-04-14T02:36:17.977Z,99294.09
2019-04-14T02:41:29.966Z,99299.43
2019-04-14T02:46:10.372Z,99296.45
2019-04-14T02:48:53.660Z,99295.80
2019-04-14T02:51:21.099Z,99299.30
2019-04-14T02:56:16.006Z,99304.55
2019-04-14T02:58:52.044Z,99303.19
2019-04-14T03:03:43.834Z,99310.16
2019-04-14T03:06:14.576Z,99307.84
2019-04-14T03:08:52.078Z,99307.47
2019-04-14T03:11:20.664Z,99299.47
2019-04-14T03:16:26.728Z,99291.92
2019-04-14T03:19:06.686Z,99304.72
2019-04-14T03:22:07.130Z,99304.72
2019-04-14T03:24:52.111Z,99302.84
2019-04-14T03:27:43.130Z,99309.24
2019-04-14T03:30:50.335Z,99298.49
2019-04-14T03:35:52.047Z,99297.61
2019-04-14T03:40:27.665Z,99299.27
2019-04-14T03:43:03.154Z,99307.16
2019-04-14T03:45:36.263Z,99306.65
2019-04-14T03:48:31.850Z,99303.38
2019-04-14T03:50:28.237Z,99315.16
2019-04-14T03:53:05.897Z,99317.41
2019-04-14T03:55:16.226Z,99315.44
2019-04-14T03:57:34.586Z,99314.89
2019-04-14T04:00:03.445Z,99306.41
2019-04-14T04:02:33.627Z,99312.08
2019-04-14T04:05:02.405Z,99308.64
2019-04-14T04:07:32.180Z,99307.72
2019-04-14T04:10:05.390Z,99310.16
2019-04-14T04:12:34.120Z,99311.21
2019-04-14T04:15:03.951Z,99306.16
2019-04-14T04:18:11.233Z,99309.34
2019-04-14T04:21:18.327Z,99314.13
2019-04-14T04:23:55.404Z,99312.72
2019-04-14T04:26:32.210Z,99319.27
2019-04-14T04:29:11.708Z,99318.94
2019-04-14T04:31:52.633Z,99319.79
2019-04-14T04:34:40.511Z,99325.30
2019-04-14T04:37:24.321Z,99328.59
2019-04-14T04:39:54.035Z,99326.07
2019-04-14T04:42:24.361Z,99325.48
2019-04-14T04:44:53.378Z,99328.83
2019-04-14T04:47:23.131Z,99332.35
2019-04-14T04:49:53.262Z,99333.52
2019-04-14T04:52:25.847Z,99337.56
2019-04-14T04:54:54.538Z,99334.28
2019-04-14T04:57:24.241Z,99333.30
2019-04-14T04:59:53.928Z,99336.73
2019-04-14T05:02:23.068Z,99336.09
2019-04-14T05:04:52.660Z,99334.74
2019-04-14T05:07:21.540Z,99345.95
2019-04-14T05:10:08.874Z,99342.62
2019-04-14T05:12:43.625Z,99341.91
2019-04-14T05:15:33.449Z,99350.15
2019-04-14T05:18:02.796Z,99359.58
2019-04-14T05:20:31.651Z,99344.61
2019-04-14T05:23:01.566Z,99355.64
2019-04-14T05:25:30.361Z,99356.56
2019-04-14T05:28:00.420Z,99358.80
2019-04-14T05:30:29.081Z,99348.38
2019-04-14T05:32:58.725Z,99354.91
2019-04-14T05:35:27.506Z,99357.55
2019-04-14T05:37:57.331Z,99357.54
2019-04-14T05:40:26.386Z,99357.72
2019-04-14T05:42:55.897Z,99356.38
2019-04-14T05:45:24.695Z,99360.36
2019-04-14T05:47:54.367Z,99364.10
2019-04-14T05:50:23.432Z,99365.27
2019-04-14T05:52:53.500Z,99367.81
2019-04-14T05:55:22.270Z,99365.88
2019-04-14T05:57:52.385Z,99364.88
2019-04-14T06:00:21.647Z,99366.92
2019-04-14T06:02:50.718Z,99376.18
2019-04-14T06:05:19.487Z,99382.80
2019-04-14T06:07:48.277Z,99381.27
2019-04-14T06:10:17.022Z,99381.94
2019-04-14T06:12:45.964Z,99375.45
2019-04-14T06:15:14.913Z,99381.02
2019-04-14T06:17:43.628Z,99378.27
2019-04-14T06:20:12.399Z,99387.82
2019-04-14T06:22:41.114Z,99387.23
2019-04-14T06:25:10.106Z,99392.34
2019-04-14T06:27:38.872Z,99388.42
2019-04-14T06:30:31.305Z,99389.91
2019-04-14T06:33:04.250Z,99385.70
2019-04-14T06:35:52.269Z,99378.43
2019-04-14T06:38:24.613Z,99382.17
2019-04-14T06:40:58.243Z,99385.05
2019-04-14T06:43:27.220Z,99377.51
2019-04-14T06:45:56.193Z,99381.08
2019-04-14T06:48:25.122Z,99378.18
2019-04-14T06:50:53.816Z,99380.68
2019-04-14T06:53:22.805Z,99383.02
2019-04-14T06:55:51.747Z,99382.73
2019-04-14T06:58:20.431Z,99372.80
2019-04-14T07:00:49.162Z,99383.56
2019-04-14T07:03:18.118Z,99387.70
2019-04-14T07:05:47.050Z,99384.83
2019-04-14T07:08:15.976Z,99387.95
2019-04-14T07:10:45.170Z,99389.00
2019-04-14T07:13:14.207Z,99387.53
2019-04-14T07:15:43.161Z,99385.91
2019-04-14T07:18:12.138Z,99398.05
2019-04-14T07:20:41.263Z,99389.28
2019-04-14T07:23:10.356Z,99387.93
2019-04-14T07:25:39.095Z,99394.17
2019-04-14T07:28:07.819Z,99398.63
2019-04-14T07:31:04.398Z,99399.02
2019-04-14T07:33:50.787Z,99399.71
2019-04-14T07:36:37.361Z,99399.50
2019-04-14T07:39:32.395Z,99403.95
2019-04-14T07:42:07.737Z,99397.78
2019-04-14T07:44:49.392Z,99399.84
2019-04-14T07:47:24.223Z,99404.91
2019-04-14T07:50:14.770Z,99402.20
2019-04-14T07:53:17.046Z,99410.09
2019-04-14T07:55:48.805Z,99404.30
2019-04-14T07:58:32.567Z,99396.11
2019-04-14T08:01:26.336Z,99395.62
2019-04-14T08:04:05.988Z,99393.86
2019-04-14T08:06:34.774Z,99391.37
2019-04-14T08:09:05.201Z,99403.58
2019-04-14T08:11:33.919Z,99397.22
2019-04-14T08:14:02.867Z,99398.64
2019-04-14T08:16:31.828Z,99390.70
2019-04-14T08:19:00.789Z,99400.66
2019-04-14T08:21:29.522Z,99396.22
2019-04-14T08:23:58.226Z,99395.77
2019-04-14T08:26:26.951Z,99395.83
2019-04-14T08:28:55.635Z,99394.27
2019-04-14T08:31:24.367Z,99399.19
2019-04-14T08:33:53.087Z,99402.91
2019-04-14T08:36:21.784Z,99402.50
2019-04-14T08:38:50.472Z,99407.75
2019-04-14T08:41:19.423Z,99408.25
2019-04-14T08:43:55.416Z,99413.82
2019-04-14T08:46:52.417Z,99399.73
2019-04-14T08:49:40.146Z,99410.46
2019-04-14T08:52:24.279Z,99407.56
2019-04-14T08:55:12.108Z,99406.50
2019-04-14T08:57:58.705Z,99403.47
2019-04-14T09:00:31.803Z,99406.30
2019-04-14T09:03:12.642Z,99408.52
2019-04-14T09:05:50.554Z,99407.42
2019-04-14T09:08:23.974Z,99406.02
2019-04-14T09:10:56.682Z,99406.73
2019-04-14T09:13:25.636Z,99404.89
2019-04-14T09:15:54.349Z,99405.00
2019-04-14T09:18:23.269Z,99405.29
2019-04-14T09:20:52.820Z,99409.66
2019-04-14T09:23:21.883Z,99412.08
2019-04-14T09:25:50.583Z,99405.37
2019-04-14T09:28:19.329Z,99406.75
2019-04-14T09:30:48.018Z,99410.84
2019-04-14T09:33:16.942Z,99410.16
2019-04-14T09:35:46.126Z,99414.18
2019-04-14T09:38:14.816Z,99410.91
2019-04-14T09:40:43.777Z,99415.48
2019-04-14T09:43:12.451Z,99411.89
2019-04-14T09:45:41.145Z,99408.93
2019-04-14T09:48:10.081Z,99411.77
2019-04-14T09:50:38.779Z,99413.41
2019-04-14T09:53:07.482Z,99418.55
2019-04-14T09:55:36.520Z,99424.07
2019-04-14T09:58:05.284Z,99418.61
2019-04-14T10:03:24.203Z,99411.08
2019-04-14T10:05:52.924Z,99417.38
2019-04-14T10:08:21.609Z,99417.42
2019-04-14T10:10:50.578Z,99414.16
2019-04-14T10:13:19.319Z,99416.80
2019-04-14T10:15:48.021Z,99408.88
2019-04-14T10:18:17.188Z,99425.12
2019-04-14T10:20:46.145Z,99424.34
2019-04-14T10:23:15.075Z,99423.05
2019-04-14T10:25:43.983Z,99429.48
2019-04-14T10:28:12.667Z,99426.38
2019-04-14T10:30:41.615Z,99435.45
2019-04-14T10:33:10.325Z,99432.82
2019-04-14T10:35:39.250Z,99429.25
2019-04-14T10:38:08.016Z,99363.36
2019-04-14T10:40:37.181Z,99437.80
2019-04-14T10:43:06.242Z,99439.08
2019-04-14T10:45:34.939Z,99441.20
2019-04-14T10:48:03.699Z,99441.46
2019-04-14T10:50:32.709Z,99438.45
2019-04-14T10:53:01.656Z,99442.88
2019-04-14T10:55:30.643Z,99446.09
2019-04-14T10:57:59.616Z,99440.10
2019-04-14T11:00:28.798Z,99445.08
2019-04-14T11:02:57.524Z,99438.55
2019-04-14T11:05:28.870Z,99441.14
2019-04-14T11:07:57.585Z,99439.80
2019-04-14T11:10:26.345Z,99440.64
2019-04-14T11:12:55.319Z,99444.45
2019-04-14T11:15:24.301Z,99437.91
2019-04-14T11:17:53.017Z,99439.80
2019-04-14T11:20:21.944Z,99444.16
2019-04-14T11:23:02.537Z,99445.73
2019-04-14T11:25:21.420Z,99435.36
2019-04-14T11:27:50.390Z,99443.78
2019-04-14T11:30:20.841Z,99443.81
2019-04-14T11:33:08.587Z,99448.45
2019-04-14T11:36:02.357Z,99435.86
2019-04-14T11:38:34.400Z,99442.97
2019-04-14T11:41:04.737Z,99447.59
2019-04-14T11:43:33.671Z,99447.31
2019-04-14T11:46:03.852Z,99440.81
2019-04-14T11:48:32.876Z,99440.35
2019-04-14T11:51:01.830Z,99443.67
2019-04-14T11:53:30.553Z,99441.25
2019-04-14T11:55:59.247Z,99450.74
2019-04-14T11:58:29.300Z,99449.67
2019-04-14T12:01:32.118Z,99456.50
2019-04-14T12:04:15.617Z,99449.13
2019-04-14T12:07:03.395Z,99454.58
2019-04-14T12:09:41.920Z,99446.16
2019-04-14T12:12:11.040Z,99458.38
2019-04-14T12:14:40.073Z,99454.55
2019-04-14T12:17:09.058Z,99460.16
2019-04-14T12:19:37.894Z,99460.97
2019-04-14T12:22:08.419Z,99457.94
2019-04-14T12:24:37.293Z,99464.71
2019-04-14T12:27:06.012Z,99461.72
2019-04-14T12:29:34.857Z,99460.70
2019-04-14T12:32:04.221Z,99460.16
2019-04-14T12:34:34.257Z,99468.39
2019-04-14T12:37:03.030Z,99461.84
2019-04-14T12:39:31.773Z,99453.88
2019-04-14T12:42:31.942Z,99470.25
2019-04-14T12:45:18.730Z,99476.97
2019-04-14T12:48:06.582Z,99482.01
2019-04-14T12:50:38.632Z,99480.78
2019-04-14T12:53:06.517Z,99474.78
2019-04-14T12:55:35.679Z,99473.93
2019-04-14T12:58:05.610Z,99474.45
2019-04-14T13:00:40.941Z,99482.92
2019-04-14T13:03:09.745Z,99486.42
2019-04-14T13:05:38.459Z,99491.03
2019-04-14T13:08:08.246Z,99488.84
2019-04-14T13:10:37.338Z,99487.67
2019-04-14T13:13:06.207Z,99483.19
2019-04-14T13:15:34.954Z,99479.62
2019-04-14T13:18:03.975Z,99484.52
2019-04-14T13:20:32.934Z,99481.24
2019-04-14T13:23:01.712Z,99488.02
2019-04-14T13:25:30.675Z,99483.91
2019-04-14T13:27:59.370Z,99485.42
2019-04-14T13:30:31.580Z,99488.69
2019-04-14T13:33:00.292Z,99488.09
2019-04-14T13:35:29.111Z,99490.84
2019-04-14T13:37:57.806Z,99494.06
2019-04-14T13:40:26.898Z,99492.38
2019-04-14T13:42:55.892Z,99496.67
2019-04-14T13:45:24.778Z,99499.39
2019-04-14T13:47:53.493Z,99494.59
2019-04-14T13:50:22.470Z,99498.14
2019-04-14T13:52:51.447Z,99491.45
2019-04-14T13:55:21.431Z,99494.77
2019-04-14T13:57:50.206Z,99484.69
2019-04-14T14:00:19.802Z,99485.42
2019-04-14T14:02:48.778Z,99485.85
2019-04-14T14:05:17.521Z,99478.02
2019-04-14T14:07:46.586Z,99478.53
2019-04-14T14:10:15.949Z,99485.30
2019-04-14T14:13:06.739Z,99480.42
2019-04-14T14:15:57.693Z,99481.28
2019-04-14T14:18:37.699Z,99472.27
2019-04-14T14:21:24.358Z,99476.89
2019-04-14T14:24:06.926Z,99474.98
2019-04-14T14:26:37.112Z,99474.43
2019-04-14T14:29:06.200Z,99473.33
2019-04-14T14:31:34.907Z,99473.78
2019-04-14T14:34:03.971Z,99475.41
2019-04-14T14:36:32.706Z,99468.37
2019-04-14T14:39:01.765Z,99474.08
2019-04-14T14:41:30.501Z,99468.31
2019-04-14T14:43:59.219Z,99479.41
2019-04-14T14:46:39.911Z,99475.95
2019-04-14T14:49:16.815Z,99468.53
2019-04-14T14:51:49.116Z,99478.69
2019-04-14T14:54:18.166Z,99479.70
2019-04-14T14:56:46.853Z,99476.00
2019-04-14T14:59:15.871Z,99481.41
2019-04-14T15:01:44.836Z,99479.95
2019-04-14T15:04:13.558Z,99477.67
2019-04-14T15:06:42.678Z,99477.59
2019-04-14T15:09:11.447Z,99476.11
2019-04-14T15:11:40.486Z,99482.49
2019-04-14T15:14:09.254Z,99484.70
2019-04-14T15:16:38.289Z,99478.87
2019-04-14T15:19:07.500Z,99477.95
2019-04-14T15:21:37.177Z,99485.53
2019-04-14T15:24:06.262Z,99483.20
2019-04-14T15:26:35.116Z,99484.55
2019-04-14T15:29:03.958Z,99476.77
2019-04-14T15:31:32.740Z,99483.67
2019-04-14T15:34:01.594Z,99479.88
2019-04-14T15:36:30.564Z,99472.02
2019-04-14T15:39:00.186Z,99482.82
2019-04-14T15:41:29.312Z,99480.67
2019-04-14T15:43:58.023Z,99481.96
2019-04-14T15:46:26.815Z,99484.41
2019-04-14T15:48:55.570Z,99489.91
2019-04-14T15:51:45.139Z,99493.11
2019-04-14T15:54:13.843Z,99486.89
2019-04-14T15:57:06.051Z,99484.27
2019-04-14T15:59:59.633Z,99479.22
2019-04-14T16:02:47.479Z,99486.16
2019-04-14T16:05:23.896Z,99486.62
2019-04-14T16:08:20.752Z,99484.47
2019-04-14T16:11:17.295Z,99485.83
2019-04-14T16:13:52.676Z,99490.96
2019-04-14T16:16:35.194Z,99489.37
2019-04-14T16:19:11.772Z,99487.19
2019-04-14T16:21:40.533Z,99485.41
2019-04-14T16:24:09.496Z,99487.17
2019-04-14T16:26:44.570Z,99479.86
2019-04-14T16:29:20.439Z,99493.48
2019-04-14T16:32:08.664Z,99484.20
2019-04-14T16:34:58.628Z,99487.27
2019-04-14T16:37:27.410Z,99486.34
2019-04-14T16:39:56.122Z,99492.73
2019-04-14T16:42:25.453Z,99486.84
2019-04-14T16:44:56.402Z,99483.73
2019-04-14T16:47:25.178Z,99487.94
2019-04-14T16:49:54.030Z,99494.35
2019-04-14T16:52:40.440Z,99487.67
2019-04-14T16:55:29.770Z,99494.91
2019-04-14T16:58:28.919Z,99506.06
2019-04-14T17:01:19.910Z,99507.98
2019-04-14T17:03:48.866Z,99511.34
2019-04-14T17:06:17.574Z,99514.42
2019-04-14T17:08:46.511Z,99514.42
2019-04-14T17:11:15.230Z,99517.37
2019-04-14T17:13:48.754Z,99517.14
2019-04-14T17:16:42.772Z,99520.61
2019-04-14T17:19:29.184Z,99516.05
2019-04-14T17:22:26.096Z,99528.55
2019-04-14T17:25:32.481Z,99526.86
2019-04-14T17:28:20.232Z,99532.30
2019-04-14T17:30:59.159Z,99529.88
2019-04-14T17:33:39.278Z,99529.20
2019-04-14T17:36:26.040Z,99535.68
2019-04-14T17:39:06.956Z,99541.63
2019-04-14T17:41:57.925Z,99540.23
2019-04-14T17:44:33.954Z,99538.80
2019-04-14T17:47:10.887Z,99548.86
2019-04-14T17:49:49.125Z,99543.73
2019-04-14T17:52:35.657Z,99543.14
2019-04-14T17:55:15.098Z,99548.94
2019-04-14T17:58:02.399Z,99552.73
2019-04-14T18:00:59.318Z,99557.33
2019-04-14T18:03:35.003Z,99556.69
2019-04-14T18:06:15.105Z,99568.84
2019-04-14T18:09:02.661Z,99570.55
2019-04-14T18:11:37.287Z,99574.62
2019-04-14T18:14:21.429Z,99577.78
2019-04-14T18:17:15.213Z,99571.64
2019-04-14T18:19:48.323Z,99570.70
2019-04-14T18:22:17.094Z,99574.09
2019-04-14T18:24:45.806Z,99582.52
2019-04-14T18:27:14.900Z,99574.65
2019-04-14T18:29:58.171Z,99582.78
2019-04-14T18:32:34.066Z,99583.24
2019-04-14T18:35:11.457Z,99584.89
2019-04-14T18:37:47.957Z,99597.80
2019-04-14T18:40:30.749Z,99601.87
2019-04-14T18:43:28.002Z,99603.30
2019-04-14T18:46:15.873Z,99607.07
2019-04-14T18:48:56.200Z,99611.25
2019-04-14T18:51:38.071Z,99604.97
2019-04-14T18:54:27.070Z,99614.61
2019-04-14T18:57:15.821Z,99612.30
2019-04-14T18:59:49.983Z,99617.51
2019-04-14T19:02:21.243Z,99621.00
2019-04-14T19:04:49.955Z,99623.38
2019-04-14T19:07:18.683Z,99625.27
2019-04-14T19:09:47.451Z,99629.70
2019-04-14T19:12:40.992Z,99634.08
2019-04-14T19:15:28.241Z,99634.30
2019-04-14T19:18:13.902Z,99635.63
2019-04-14T19:20:51.971Z,99631.87
2019-04-14T19:23:20.851Z,99643.23
2019-04-14T19:25:56.755Z,99638.38
2019-04-14T19:28:26.573Z,99640.23
2019-04-14T19:30:57.100Z,99639.81
2019-04-14T19:33:37.443Z,99640.30
2019-04-14T19:36:06.376Z,99636.53
2019-04-14T19:38:35.329Z,99640.27
2019-04-14T19:41:04.189Z,99639.48
2019-04-14T19:43:33.191Z,99639.73
2019-04-14T19:46:02.161Z,99641.70
2019-04-14T19:48:32.046Z,99635.60
2019-04-14T19:51:00.757Z,99643.80
2019-04-14T19:53:29.502Z,99642.27
2019-04-14T19:55:58.209Z,99649.53
2019-04-14T19:58:27.156Z,99639.89
2019-04-14T20:00:55.835Z,99640.16
2019-04-14T20:03:25.043Z,99645.47
2019-04-14T20:05:54.015Z,99649.80
2019-04-14T20:08:22.739Z,99646.14
2019-04-14T20:10:51.471Z,99643.69
2019-04-14T20:13:20.413Z,99649.19
2019-04-14T20:16:26.531Z,99644.33
2019-04-14T20:19:12.838Z,99648.94
2019-04-14T20:22:15.792Z,99647.69
2019-04-14T20:24:54.166Z,99652.74
2019-04-14T20:27:44.773Z,99647.31
2019-04-14T20:30:24.585Z,99646.71
2019-04-14T20:32:53.290Z,99646.94
2019-04-14T20:35:22.349Z,99630.16
2019-04-14T20:37:51.479Z,99640.38
2019-04-14T20:40:20.182Z,99632.23
2019-04-14T20:42:48.873Z,99632.34
2019-04-14T20:45:18.179Z,99636.45
2019-04-14T20:47:47.145Z,99634.20
2019-04-14T20:50:16.024Z,99642.19
2019-04-14T20:52:44.706Z,99633.70
2019-04-14T20:55:13.669Z,99628.44
2019-04-14T20:57:42.578Z,99627.26
2019-04-14T21:00:13.184Z,99630.60
2019-04-14T21:03:04.087Z,99631.99
2019-04-14T21:05:47.650Z,99638.04
2019-04-14T21:08:42.523Z,99634.27
2019-04-14T21:11:17.715Z,99634.34
2019-04-14T21:14:18.033Z,99638.41
2019-04-14T21:16:59.784Z,99640.41
2019-04-14T21:19:37.331Z,99641.91
2019-04-14T21:22:34.629Z,99643.54
2019-04-14T21:25:19.402Z,99645.83
2019-04-14T21:28:09.642Z,99642.48
2019-04-14T21:30:44.958Z,99648.97
2019-04-14T21:33:32.685Z,99647.61
2019-04-14T21:36:23.934Z,99642.29
2019-04-14T21:39:03.121Z,99648.19
2019-04-14T21:41:31.835Z,99647.03
2019-04-14T21:44:00.852Z,99648.13
2019-04-14T21:46:29.784Z,99653.48
2019-04-14T21:48:58.467Z,99658.01
2019-04-14T21:51:46.248Z,99664.97
2019-04-14T21:54:15.248Z,99662.19
2019-04-14T21:56:45.565Z,99664.05
2019-04-14T21:59:19.753Z,99664.28
2019-04-14T22:02:06.093Z,99661.80
2019-04-14T22:04:53.838Z,99676.39
2019-04-14T22:07:54.304Z,99672.36
2019-04-14T22:10:39.982Z,99674.77
2019-04-14T22:13:09.090Z,99673.75
2019-04-14T22:15:37.796Z,99677.85
2019-04-14T22:18:06.580Z,99676.53
2019-04-14T22:20:35.348Z,99687.78
2019-04-14T22:23:05.790Z,99690.98
2019-04-14T22:25:34.836Z,99686.13
2019-04-14T22:28:03.810Z,99685.92
2019-04-14T22:30:32.657Z,99684.50
2019-04-14T22:33:01.591Z,99682.91
2019-04-14T22:35:30.550Z,99691.05
2019-04-14T22:37:59.316Z,99694.00
2019-04-14T22:40:28.091Z,99697.27
2019-04-14T22:42:57.048Z,99700.52
2019-04-14T22:45:26.017Z,99698.63
2019-04-14T22:47:54.940Z,99699.20
2019-04-14T22:50:23.631Z,99701.09
2019-04-14T22:52:52.599Z,99696.98
2019-04-14T22:55:21.328Z,99694.34
2019-04-14T22:57:50.249Z,99695.20
2019-04-14T23:00:51.135Z,99702.22
2019-04-14T23:03:43.383Z,99703.78
2019-04-14T23:06:34.187Z,99698.25
2019-04-14T23:09:28.195Z,99698.91
2019-04-14T23:12:14.720Z,99691.83
2019-04-14T23:14:57.388Z,99693.22
2019-04-14T23:17:34.980Z,99687.76
2019-04-14T23:20:38.643Z,99684.48
2019-04-14T23:23:44.700Z,99687.56
2019-04-14T23:26:14.020Z,99688.95
2019-04-14T23:28:42.973Z,99693.39
2019-04-14T23:31:11.749Z,99699.61
2019-04-14T23:33:40.751Z,99691.98
2019-04-14T23:36:09.760Z,99700.33
2019-04-14T23:38:38.936Z,99689.20
2019-04-14T23:41:07.719Z,99688.11
2019-04-14T23:43:36.759Z,99683.52
2019-04-14T23:46:05.605Z,99685.20
2019-04-14T23:48:34.585Z,99684.74
2019-04-14T23:51:03.591Z,99677.82
2019-04-14T23:53:32.761Z,99673.91
2019-04-14T23:56:01.806Z,99677.52
2019-04-14T23:58:30.503Z,99677.48
